sensor_id;sensor_type;location;lat;lon;timestamp;P1;durP1;ratioP1;P2;durP2;ratioP2
23684;SDS011;12020;51.384;6.908;2023-07-22T00:02:18;13.43;;;7.17;;
23684;SDS011;12020;51.384;6.908;2023-07-22T00:04:44;11.73;;;7.63;;
23684;SDS011;12020;51.384;6.908;2023-07-22T00:07:10;7.73;;;6.27;;
23684;SDS011;12020;51.384;6.908;2023-07-22T00:09:37;7.23;;;6.33;;
23684;SDS011;12020;51.384;6.908;2023-07-22T00:12:04;8.90;;;6.93;;
23684;SDS011;12020;51.384;6.908;2023-07-22T00:14:30;9.13;;;7.00;;
23684;SDS011;12020;51.384;6.908;2023-07-22T00:16:56;8.80;;;6.27;;
23684;SDS011;12020;51.384;6.908;2023-07-22T00:19:21;10.70;;;6.80;;
23684;SDS011;12020;51.384;6.908;2023-07-22T00:21:48;7.90;;;7.00;;
23684;SDS011;12020;51.384;6.908;2023-07-22T00:24:14;9.27;;;6.60;;
23684;SDS011;12020;51.384;6.908;2023-07-22T00:26:41;8.30;;;6.37;;
23684;SDS011;12020;51.384;6.908;2023-07-22T00:29:07;10.90;;;7.00;;
23684;SDS011;12020;51.384;6.908;2023-07-22T00:31:33;7.60;;;6.50;;
23684;SDS011;12020;51.384;6.908;2023-07-22T00:33:58;10.23;;;6.87;;
23684;SDS011;12020;51.384;6.908;2023-07-22T00:36:25;9.03;;;6.23;;
23684;SDS011;12020;51.384;6.908;2023-07-22T00:38:50;7.10;;;6.00;;
23684;SDS011;12020;51.384;6.908;2023-07-22T00:41:17;8.80;;;6.63;;
23684;SDS011;12020;51.384;6.908;2023-07-22T00:43:43;8.70;;;6.50;;
23684;SDS011;12020;51.384;6.908;2023-07-22T00:46:09;8.77;;;6.70;;
23684;SDS011;12020;51.384;6.908;2023-07-22T00:48:35;9.53;;;6.40;;
23684;SDS011;12020;51.384;6.908;2023-07-22T00:51:01;7.83;;;6.40;;
23684;SDS011;12020;51.384;6.908;2023-07-22T00:53:26;7.97;;;6.60;;
23684;SDS011;12020;51.384;6.908;2023-07-22T00:55:54;8.20;;;6.87;;
23684;SDS011;12020;51.384;6.908;2023-07-22T00:58:20;7.87;;;6.43;;
23684;SDS011;12020;51.384;6.908;2023-07-22T01:00:46;8.03;;;6.60;;
23684;SDS011;12020;51.384;6.908;2023-07-22T01:03:11;8.17;;;6.23;;
23684;SDS011;12020;51.384;6.908;2023-07-22T01:05:38;7.47;;;6.33;;
23684;SDS011;12020;51.384;6.908;2023-07-22T01:08:04;8.13;;;6.40;;
23684;SDS011;12020;51.384;6.908;2023-07-22T01:10:31;7.97;;;6.03;;
23684;SDS011;12020;51.384;6.908;2023-07-22T01:12:56;10.60;;;6.90;;
23684;SDS011;12020;51.384;6.908;2023-07-22T01:15:23;7.00;;;6.20;;
23684;SDS011;12020;51.384;6.908;2023-07-22T01:17:50;9.17;;;6.87;;
23684;SDS011;12020;51.384;6.908;2023-07-22T01:20:16;9.40;;;6.57;;
23684;SDS011;12020;51.384;6.908;2023-07-22T01:22:49;8.77;;;6.57;;
23684;SDS011;12020;51.384;6.908;2023-07-22T01:25:22;9.73;;;6.63;;
23684;SDS011;12020;51.384;6.908;2023-07-22T01:27:51;7.97;;;6.13;;
23684;SDS011;12020;51.384;6.908;2023-07-22T01:30:17;8.63;;;7.13;;
23684;SDS011;12020;51.384;6.908;2023-07-22T01:32:44;8.55;;;7.55;;
23684;SDS011;12020;51.384;6.908;2023-07-22T01:35:10;9.30;;;8.30;;
23684;SDS011;12020;51.384;6.908;2023-07-22T01:37:36;9.40;;;7.43;;
23684;SDS011;12020;51.384;6.908;2023-07-22T01:40:02;10.17;;;7.27;;
23684;SDS011;12020;51.384;6.908;2023-07-22T01:42:40;8.77;;;6.63;;
23684;SDS011;12020;51.384;6.908;2023-07-22T01:45:07;9.70;;;6.63;;
23684;SDS011;12020;51.384;6.908;2023-07-22T01:47:34;9.50;;;6.67;;
23684;SDS011;12020;51.384;6.908;2023-07-22T01:50:01;9.10;;;7.90;;
23684;SDS011;12020;51.384;6.908;2023-07-22T01:52:27;10.30;;;8.23;;
23684;SDS011;12020;51.384;6.908;2023-07-22T01:54:53;9.53;;;8.63;;
23684;SDS011;12020;51.384;6.908;2023-07-22T01:57:18;10.60;;;8.90;;
23684;SDS011;12020;51.384;6.908;2023-07-22T01:59:44;9.23;;;8.23;;
23684;SDS011;12020;51.384;6.908;2023-07-22T02:02:10;9.67;;;8.63;;
23684;SDS011;12020;51.384;6.908;2023-07-22T02:04:35;10.18;;;8.70;;
23684;SDS011;12020;51.384;6.908;2023-07-22T02:07:01;10.07;;;8.73;;
23684;SDS011;12020;51.384;6.908;2023-07-22T02:09:26;11.88;;;9.00;;
23684;SDS011;12020;51.384;6.908;2023-07-22T02:11:52;10.13;;;9.00;;
23684;SDS011;12020;51.384;6.908;2023-07-22T02:14:18;10.10;;;9.00;;
23684;SDS011;12020;51.384;6.908;2023-07-22T02:16:44;10.70;;;9.02;;
23684;SDS011;12020;51.384;6.908;2023-07-22T02:19:10;10.13;;;8.77;;
23684;SDS011;12020;51.384;6.908;2023-07-22T02:21:35;10.90;;;9.10;;
23684;SDS011;12020;51.384;6.908;2023-07-22T02:24:01;11.90;;;8.87;;
23684;SDS011;12020;51.384;6.908;2023-07-22T02:26:27;12.57;;;9.37;;
23684;SDS011;12020;51.384;6.908;2023-07-22T02:28:52;11.03;;;8.87;;
23684;SDS011;12020;51.384;6.908;2023-07-22T02:31:19;10.57;;;9.00;;
23684;SDS011;12020;51.384;6.908;2023-07-22T02:33:47;11.93;;;9.00;;
23684;SDS011;12020;51.384;6.908;2023-07-22T02:36:13;9.88;;;8.57;;
23684;SDS011;12020;51.384;6.908;2023-07-22T02:38:39;10.67;;;8.27;;
23684;SDS011;12020;51.384;6.908;2023-07-22T02:41:05;10.13;;;8.17;;
23684;SDS011;12020;51.384;6.908;2023-07-22T02:43:32;11.03;;;7.70;;
23684;SDS011;12020;51.384;6.908;2023-07-22T02:46:01;12.57;;;7.87;;
23684;SDS011;12020;51.384;6.908;2023-07-22T02:48:29;10.00;;;7.07;;
23684;SDS011;12020;51.384;6.908;2023-07-22T02:50:55;11.10;;;7.30;;
23684;SDS011;12020;51.384;6.908;2023-07-22T02:53:26;11.67;;;7.27;;
23684;SDS011;12020;51.384;6.908;2023-07-22T02:55:52;10.07;;;8.20;;
23684;SDS011;12020;51.384;6.908;2023-07-22T02:58:17;9.63;;;8.27;;
23684;SDS011;12020;51.384;6.908;2023-07-22T03:00:43;9.70;;;8.00;;
23684;SDS011;12020;51.384;6.908;2023-07-22T03:03:09;9.20;;;8.20;;
23684;SDS011;12020;51.384;6.908;2023-07-22T03:05:34;10.63;;;8.48;;
23684;SDS011;12020;51.384;6.908;2023-07-22T03:08:00;9.70;;;7.90;;
23684;SDS011;12020;51.384;6.908;2023-07-22T03:10:25;10.20;;;8.37;;
23684;SDS011;12020;51.384;6.908;2023-07-22T03:12:51;10.57;;;8.00;;
23684;SDS011;12020;51.384;6.908;2023-07-22T03:15:21;10.95;;;7.63;;
23684;SDS011;12020;51.384;6.908;2023-07-22T03:17:47;9.82;;;7.78;;
23684;SDS011;12020;51.384;6.908;2023-07-22T03:20:13;9.38;;;7.65;;
23684;SDS011;12020;51.384;6.908;2023-07-22T03:22:42;10.38;;;8.05;;
23684;SDS011;12020;51.384;6.908;2023-07-22T03:25:09;8.52;;;7.55;;
23684;SDS011;12020;51.384;6.908;2023-07-22T03:27:36;9.82;;;8.02;;
23684;SDS011;12020;51.384;6.908;2023-07-22T03:30:02;9.73;;;7.83;;
23684;SDS011;12020;51.384;6.908;2023-07-22T03:32:31;10.40;;;8.18;;
23684;SDS011;12020;51.384;6.908;2023-07-22T03:34:57;9.48;;;8.10;;
23684;SDS011;12020;51.384;6.908;2023-07-22T03:37:22;9.07;;;7.38;;
23684;SDS011;12020;51.384;6.908;2023-07-22T03:39:48;9.25;;;7.68;;
23684;SDS011;12020;51.384;6.908;2023-07-22T03:42:14;8.18;;;7.38;;
23684;SDS011;12020;51.384;6.908;2023-07-22T03:44:40;8.20;;;6.73;;
23684;SDS011;12020;51.384;6.908;2023-07-22T03:47:05;9.50;;;6.40;;
23684;SDS011;12020;51.384;6.908;2023-07-22T03:52:00;8.75;;;7.40;;
23684;SDS011;12020;51.384;6.908;2023-07-22T03:54:25;7.70;;;6.90;;
23684;SDS011;12020;51.384;6.908;2023-07-22T03:56:51;9.13;;;7.83;;
23684;SDS011;12020;51.384;6.908;2023-07-22T03:59:16;8.53;;;7.40;;
23684;SDS011;12020;51.384;6.908;2023-07-22T04:01:42;8.77;;;7.57;;
23684;SDS011;12020;51.384;6.908;2023-07-22T04:04:08;8.25;;;7.38;;
23684;SDS011;12020;51.384;6.908;2023-07-22T04:06:34;9.63;;;7.73;;
23684;SDS011;12020;51.384;6.908;2023-07-22T04:08:59;8.33;;;7.23;;
23684;SDS011;12020;51.384;6.908;2023-07-22T04:11:25;7.93;;;6.97;;
23684;SDS011;12020;51.384;6.908;2023-07-22T04:13:52;8.02;;;7.22;;
23684;SDS011;12020;51.384;6.908;2023-07-22T04:16:18;7.80;;;6.93;;
23684;SDS011;12020;51.384;6.908;2023-07-22T04:18:43;8.40;;;7.30;;
23684;SDS011;12020;51.384;6.908;2023-07-22T04:21:10;8.10;;;7.22;;
23684;SDS011;12020;51.384;6.908;2023-07-22T04:23:36;10.27;;;7.32;;
23684;SDS011;12020;51.384;6.908;2023-07-22T04:26:02;7.87;;;7.07;;
23684;SDS011;12020;51.384;6.908;2023-07-22T04:28:30;7.55;;;6.72;;
23684;SDS011;12020;51.384;6.908;2023-07-22T04:30:58;9.35;;;7.28;;
23684;SDS011;12020;51.384;6.908;2023-07-22T04:33:25;8.77;;;6.87;;
23684;SDS011;12020;51.384;6.908;2023-07-22T04:35:53;8.57;;;6.50;;
23684;SDS011;12020;51.384;6.908;2023-07-22T04:38:21;8.73;;;7.22;;
23684;SDS011;12020;51.384;6.908;2023-07-22T04:40:47;7.95;;;6.65;;
23684;SDS011;12020;51.384;6.908;2023-07-22T04:43:12;8.50;;;6.90;;
23684;SDS011;12020;51.384;6.908;2023-07-22T04:45:38;8.53;;;6.73;;
23684;SDS011;12020;51.384;6.908;2023-07-22T04:48:07;9.73;;;6.65;;
23684;SDS011;12020;51.384;6.908;2023-07-22T04:50:32;9.65;;;7.35;;
23684;SDS011;12020;51.384;6.908;2023-07-22T04:52:58;9.30;;;6.40;;
23684;SDS011;12020;51.384;6.908;2023-07-22T04:55:25;9.00;;;6.27;;
23684;SDS011;12020;51.384;6.908;2023-07-22T04:57:54;8.05;;;6.47;;
23684;SDS011;12020;51.384;6.908;2023-07-22T05:00:20;7.65;;;6.80;;
23684;SDS011;12020;51.384;6.908;2023-07-22T05:02:47;9.82;;;7.10;;
23684;SDS011;12020;51.384;6.908;2023-07-22T05:05:13;9.32;;;7.22;;
23684;SDS011;12020;51.384;6.908;2023-07-22T05:07:39;8.32;;;7.05;;
23684;SDS011;12020;51.384;6.908;2023-07-22T05:10:04;9.10;;;7.10;;
23684;SDS011;12020;51.384;6.908;2023-07-22T05:12:32;8.55;;;6.85;;
23684;SDS011;12020;51.384;6.908;2023-07-22T05:14:58;10.25;;;7.35;;
23684;SDS011;12020;51.384;6.908;2023-07-22T05:17:23;8.30;;;7.40;;
23684;SDS011;12020;51.384;6.908;2023-07-22T05:19:50;7.90;;;6.63;;
23684;SDS011;12020;51.384;6.908;2023-07-22T05:22:16;8.30;;;7.30;;
23684;SDS011;12020;51.384;6.908;2023-07-22T05:24:42;8.90;;;7.20;;
23684;SDS011;12020;51.384;6.908;2023-07-22T05:27:07;8.27;;;7.07;;
23684;SDS011;12020;51.384;6.908;2023-07-22T05:29:33;8.23;;;7.33;;
23684;SDS011;12020;51.384;6.908;2023-07-22T05:31:59;8.30;;;7.10;;
23684;SDS011;12020;51.384;6.908;2023-07-22T05:34:24;8.40;;;7.05;;
23684;SDS011;12020;51.384;6.908;2023-07-22T05:36:50;8.63;;;7.05;;
23684;SDS011;12020;51.384;6.908;2023-07-22T05:39:15;8.13;;;7.30;;
23684;SDS011;12020;51.384;6.908;2023-07-22T05:41:43;8.70;;;7.00;;
23684;SDS011;12020;51.384;6.908;2023-07-22T05:44:09;8.77;;;7.03;;
23684;SDS011;12020;51.384;6.908;2023-07-22T05:46:34;8.87;;;7.37;;
23684;SDS011;12020;51.384;6.908;2023-07-22T05:49:00;8.60;;;7.43;;
23684;SDS011;12020;51.384;6.908;2023-07-22T05:51:25;9.48;;;7.22;;
23684;SDS011;12020;51.384;6.908;2023-07-22T05:53:51;9.10;;;7.72;;
23684;SDS011;12020;51.384;6.908;2023-07-22T05:56:17;9.98;;;7.85;;
23684;SDS011;12020;51.384;6.908;2023-07-22T05:58:42;8.77;;;7.60;;
23684;SDS011;12020;51.384;6.908;2023-07-22T06:01:09;8.32;;;7.47;;
23684;SDS011;12020;51.384;6.908;2023-07-22T06:03:35;8.30;;;7.30;;
23684;SDS011;12020;51.384;6.908;2023-07-22T06:06:01;8.33;;;7.23;;
23684;SDS011;12020;51.384;6.908;2023-07-22T06:08:26;8.33;;;7.53;;
23684;SDS011;12020;51.384;6.908;2023-07-22T06:10:52;8.00;;;7.20;;
23684;SDS011;12020;51.384;6.908;2023-07-22T06:13:18;8.27;;;7.40;;
23684;SDS011;12020;51.384;6.908;2023-07-22T06:15:44;10.53;;;7.93;;
23684;SDS011;12020;51.384;6.908;2023-07-22T06:18:10;8.13;;;7.28;;
23684;SDS011;12020;51.384;6.908;2023-07-22T06:20:36;8.60;;;7.70;;
23684;SDS011;12020;51.384;6.908;2023-07-22T06:23:03;8.00;;;7.20;;
23684;SDS011;12020;51.384;6.908;2023-07-22T06:25:28;9.93;;;7.80;;
23684;SDS011;12020;51.384;6.908;2023-07-22T06:27:54;9.63;;;7.55;;
23684;SDS011;12020;51.384;6.908;2023-07-22T06:30:20;8.93;;;7.65;;
23684;SDS011;12020;51.384;6.908;2023-07-22T06:32:46;8.90;;;7.72;;
23684;SDS011;12020;51.384;6.908;2023-07-22T06:35:11;10.87;;;7.70;;
23684;SDS011;12020;51.384;6.908;2023-07-22T06:37:37;8.07;;;7.00;;
23684;SDS011;12020;51.384;6.908;2023-07-22T06:40:03;8.75;;;7.22;;
23684;SDS011;12020;51.384;6.908;2023-07-22T06:42:30;8.23;;;7.00;;
23684;SDS011;12020;51.384;6.908;2023-07-22T06:44:55;8.83;;;7.33;;
23684;SDS011;12020;51.384;6.908;2023-07-22T06:47:21;8.65;;;7.75;;
23684;SDS011;12020;51.384;6.908;2023-07-22T06:49:46;9.73;;;7.63;;
23684;SDS011;12020;51.384;6.908;2023-07-22T06:52:12;8.82;;;7.68;;
23684;SDS011;12020;51.384;6.908;2023-07-22T06:54:38;9.68;;;7.57;;
23684;SDS011;12020;51.384;6.908;2023-07-22T06:57:04;8.95;;;7.55;;
23684;SDS011;12020;51.384;6.908;2023-07-22T06:59:31;9.15;;;7.07;;
23684;SDS011;12020;51.384;6.908;2023-07-22T07:01:57;8.00;;;6.72;;
23684;SDS011;12020;51.384;6.908;2023-07-22T07:04:22;7.95;;;7.15;;
23684;SDS011;12020;51.384;6.908;2023-07-22T07:06:49;8.23;;;7.05;;
23684;SDS011;12020;51.384;6.908;2023-07-22T07:09:15;8.83;;;7.00;;
23684;SDS011;12020;51.384;6.908;2023-07-22T07:11:41;8.93;;;7.10;;
23684;SDS011;12020;51.384;6.908;2023-07-22T07:14:07;8.90;;;6.93;;
23684;SDS011;12020;51.384;6.908;2023-07-22T07:16:33;8.27;;;7.23;;
23684;SDS011;12020;51.384;6.908;2023-07-22T07:18:59;7.93;;;7.13;;
23684;SDS011;12020;51.384;6.908;2023-07-22T07:21:26;8.15;;;6.80;;
23684;SDS011;12020;51.384;6.908;2023-07-22T07:23:52;7.95;;;7.05;;
23684;SDS011;12020;51.384;6.908;2023-07-22T07:26:19;8.40;;;6.93;;
23684;SDS011;12020;51.384;6.908;2023-07-22T07:28:46;10.53;;;7.30;;
23684;SDS011;12020;51.384;6.908;2023-07-22T07:31:13;8.43;;;6.70;;
23684;SDS011;12020;51.384;6.908;2023-07-22T07:33:38;8.00;;;6.80;;
23684;SDS011;12020;51.384;6.908;2023-07-22T07:36:04;9.43;;;6.70;;
23684;SDS011;12020;51.384;6.908;2023-07-22T07:38:30;9.43;;;6.87;;
23684;SDS011;12020;51.384;6.908;2023-07-22T07:40:56;8.00;;;7.20;;
23684;SDS011;12020;51.384;6.908;2023-07-22T07:43:24;9.15;;;7.32;;
23684;SDS011;12020;51.384;6.908;2023-07-22T07:45:50;8.05;;;7.15;;
23684;SDS011;12020;51.384;6.908;2023-07-22T07:48:16;8.70;;;6.82;;
23684;SDS011;12020;51.384;6.908;2023-07-22T07:50:42;9.40;;;7.20;;
23684;SDS011;12020;51.384;6.908;2023-07-22T07:53:08;10.07;;;7.20;;
23684;SDS011;12020;51.384;6.908;2023-07-22T07:55:33;7.93;;;7.07;;
23684;SDS011;12020;51.384;6.908;2023-07-22T07:58:17;10.98;;;7.65;;
23684;SDS011;12020;51.384;6.908;2023-07-22T08:00:43;9.57;;;7.20;;
23684;SDS011;12020;51.384;6.908;2023-07-22T08:03:08;8.77;;;7.10;;
23684;SDS011;12020;51.384;6.908;2023-07-22T08:05:34;8.00;;;6.80;;
23684;SDS011;12020;51.384;6.908;2023-07-22T08:07:59;10.48;;;7.32;;
23684;SDS011;12020;51.384;6.908;2023-07-22T08:10:25;9.98;;;7.38;;
23684;SDS011;12020;51.384;6.908;2023-07-22T08:12:51;8.67;;;6.80;;
23684;SDS011;12020;51.384;6.908;2023-07-22T08:15:16;8.30;;;6.83;;
23684;SDS011;12020;51.384;6.908;2023-07-22T08:17:42;9.40;;;6.85;;
23684;SDS011;12020;51.384;6.908;2023-07-22T08:20:08;10.18;;;7.03;;
23684;SDS011;12020;51.384;6.908;2023-07-22T08:22:35;14.00;;;6.88;;
23684;SDS011;12020;51.384;6.908;2023-07-22T08:25:00;12.85;;;7.68;;
23684;SDS011;12020;51.384;6.908;2023-07-22T08:27:26;10.93;;;7.55;;
23684;SDS011;12020;51.384;6.908;2023-07-22T08:29:52;8.75;;;7.38;;
23684;SDS011;12020;51.384;6.908;2023-07-22T08:32:18;8.97;;;7.00;;
23684;SDS011;12020;51.384;6.908;2023-07-22T08:34:43;8.27;;;7.00;;
23684;SDS011;12020;51.384;6.908;2023-07-22T08:37:09;8.63;;;7.25;;
23684;SDS011;12020;51.384;6.908;2023-07-22T08:39:35;9.90;;;6.80;;
23684;SDS011;12020;51.384;6.908;2023-07-22T08:42:04;7.93;;;6.50;;
23684;SDS011;12020;51.384;6.908;2023-07-22T08:44:32;8.23;;;6.47;;
23684;SDS011;12020;51.384;6.908;2023-07-22T08:47:01;7.60;;;6.72;;
23684;SDS011;12020;51.384;6.908;2023-07-22T08:49:31;7.15;;;6.22;;
23684;SDS011;12020;51.384;6.908;2023-07-22T08:51:57;8.35;;;6.78;;
23684;SDS011;12020;51.384;6.908;2023-07-22T08:54:25;9.52;;;6.13;;
23684;SDS011;12020;51.384;6.908;2023-07-22T08:56:51;7.68;;;5.78;;
23684;SDS011;12020;51.384;6.908;2023-07-22T08:59:17;7.13;;;6.07;;
23684;SDS011;12020;51.384;6.908;2023-07-22T09:01:44;8.07;;;6.45;;
23684;SDS011;12020;51.384;6.908;2023-07-22T09:04:11;8.00;;;6.38;;
23684;SDS011;12020;51.384;6.908;2023-07-22T09:06:36;7.40;;;6.20;;
23684;SDS011;12020;51.384;6.908;2023-07-22T09:09:02;7.03;;;5.87;;
23684;SDS011;12020;51.384;6.908;2023-07-22T09:11:34;6.68;;;5.30;;
23684;SDS011;12020;51.384;6.908;2023-07-22T09:14:01;6.85;;;5.40;;
23684;SDS011;12020;51.384;6.908;2023-07-22T09:16:29;6.57;;;5.53;;
23684;SDS011;12020;51.384;6.908;2023-07-22T09:18:57;5.85;;;5.00;;
23684;SDS011;12020;51.384;6.908;2023-07-22T09:21:23;6.90;;;5.27;;
23684;SDS011;12020;51.384;6.908;2023-07-22T09:23:48;6.47;;;5.67;;
23684;SDS011;12020;51.384;6.908;2023-07-22T09:26:15;6.03;;;5.13;;
23684;SDS011;12020;51.384;6.908;2023-07-22T09:31:14;6.10;;;4.90;;
23684;SDS011;12020;51.384;6.908;2023-07-22T09:33:40;5.57;;;4.90;;
23684;SDS011;12020;51.384;6.908;2023-07-22T09:36:06;6.03;;;4.97;;
23684;SDS011;12020;51.384;6.908;2023-07-22T09:38:31;5.75;;;4.80;;
23684;SDS011;12020;51.384;6.908;2023-07-22T09:40:57;6.13;;;4.63;;
23684;SDS011;12020;51.384;6.908;2023-07-22T09:43:24;5.70;;;4.40;;
23684;SDS011;12020;51.384;6.908;2023-07-22T09:45:49;6.00;;;4.55;;
23684;SDS011;12020;51.384;6.908;2023-07-22T09:48:16;6.10;;;5.20;;
23684;SDS011;12020;51.384;6.908;2023-07-22T09:50:43;6.53;;;4.38;;
23684;SDS011;12020;51.384;6.908;2023-07-22T09:53:09;6.28;;;4.45;;
23684;SDS011;12020;51.384;6.908;2023-07-22T09:55:40;5.67;;;4.60;;
23684;SDS011;12020;51.384;6.908;2023-07-22T09:58:06;5.27;;;4.27;;
23684;SDS011;12020;51.384;6.908;2023-07-22T10:00:34;6.03;;;4.47;;
23684;SDS011;12020;51.384;6.908;2023-07-22T10:03:01;5.68;;;4.03;;
23684;SDS011;12020;51.384;6.908;2023-07-22T10:05:31;4.22;;;3.80;;
23684;SDS011;12020;51.384;6.908;2023-07-22T10:07:59;5.25;;;4.20;;
23684;SDS011;12020;51.384;6.908;2023-07-22T10:10:27;4.35;;;3.90;;
23684;SDS011;12020;51.384;6.908;2023-07-22T10:12:58;5.80;;;4.28;;
23684;SDS011;12020;51.384;6.908;2023-07-22T10:15:32;4.43;;;3.83;;
23684;SDS011;12020;51.384;6.908;2023-07-22T10:17:59;4.25;;;3.45;;
23684;SDS011;12020;51.384;6.908;2023-07-22T10:20:25;5.03;;;3.55;;
23684;SDS011;12020;51.384;6.908;2023-07-22T10:22:51;5.60;;;3.70;;
23684;SDS011;12020;51.384;6.908;2023-07-22T10:25:25;3.27;;;2.90;;
23684;SDS011;12020;51.384;6.908;2023-07-22T10:30:49;3.95;;;3.10;;
23684;SDS011;12020;51.384;6.908;2023-07-22T10:33:16;5.32;;;2.88;;
23684;SDS011;12020;51.384;6.908;2023-07-22T10:35:43;5.00;;;3.33;;
23684;SDS011;12020;51.384;6.908;2023-07-22T10:38:44;5.50;;;3.20;;
23684;SDS011;12020;51.384;6.908;2023-07-22T10:41:21;3.75;;;3.03;;
23684;SDS011;12020;51.384;6.908;2023-07-22T10:43:56;3.25;;;2.58;;
23684;SDS011;12020;51.384;6.908;2023-07-22T10:46:37;6.13;;;3.23;;
23684;SDS011;12020;51.384;6.908;2023-07-22T10:49:09;4.28;;;3.08;;
23684;SDS011;12020;51.384;6.908;2023-07-22T10:51:37;4.05;;;2.72;;
23684;SDS011;12020;51.384;6.908;2023-07-22T10:54:03;4.57;;;2.72;;
23684;SDS011;12020;51.384;6.908;2023-07-22T10:56:36;3.17;;;2.60;;
23684;SDS011;12020;51.384;6.908;2023-07-22T10:59:02;3.67;;;2.53;;
23684;SDS011;12020;51.384;6.908;2023-07-22T11:01:31;3.05;;;2.58;;
23684;SDS011;12020;51.384;6.908;2023-07-22T11:09:37;3.17;;;2.40;;
23684;SDS011;12020;51.384;6.908;2023-07-22T11:12:14;2.83;;;2.40;;
23684;SDS011;12020;51.384;6.908;2023-07-22T11:14:50;2.80;;;2.00;;
23684;SDS011;12020;51.384;6.908;2023-07-22T11:17:32;2.93;;;2.00;;
23684;SDS011;12020;51.384;6.908;2023-07-22T11:22:31;3.25;;;2.22;;
23684;SDS011;12020;51.384;6.908;2023-07-22T11:24:59;3.75;;;2.38;;
23684;SDS011;12020;51.384;6.908;2023-07-22T11:27:36;2.55;;;2.33;;
23684;SDS011;12020;51.384;6.908;2023-07-22T11:30:02;3.60;;;2.40;;
23684;SDS011;12020;51.384;6.908;2023-07-22T11:32:29;2.50;;;2.07;;
23684;SDS011;12020;51.384;6.908;2023-07-22T11:34:54;3.57;;;2.00;;
23684;SDS011;12020;51.384;6.908;2023-07-22T11:37:22;2.88;;;1.85;;
23684;SDS011;12020;51.384;6.908;2023-07-22T11:40:01;3.00;;;2.00;;
23684;SDS011;12020;51.384;6.908;2023-07-22T11:44:59;2.20;;;2.00;;
23684;SDS011;12020;51.384;6.908;2023-07-22T11:47:30;2.90;;;2.20;;
23684;SDS011;12020;51.384;6.908;2023-07-22T11:49:56;5.60;;;2.30;;
23684;SDS011;12020;51.384;6.908;2023-07-22T11:52:23;2.30;;;1.98;;
23684;SDS011;12020;51.384;6.908;2023-07-22T11:54:48;2.53;;;2.25;;
23684;SDS011;12020;51.384;6.908;2023-07-22T11:57:15;3.00;;;1.92;;
23684;SDS011;12020;51.384;6.908;2023-07-22T12:02:23;2.40;;;2.00;;
23684;SDS011;12020;51.384;6.908;2023-07-22T12:04:55;3.95;;;1.98;;
23684;SDS011;12020;51.384;6.908;2023-07-22T12:07:34;2.30;;;1.90;;
23684;SDS011;12020;51.384;6.908;2023-07-22T12:10:05;4.32;;;2.85;;
23684;SDS011;12020;51.384;6.908;2023-07-22T12:12:35;3.63;;;2.42;;
23684;SDS011;12020;51.384;6.908;2023-07-22T12:15:13;7.93;;;4.47;;
23684;SDS011;12020;51.384;6.908;2023-07-22T12:17:56;5.00;;;2.78;;
23684;SDS011;12020;51.384;6.908;2023-07-22T12:20:36;4.75;;;2.20;;
23684;SDS011;12020;51.384;6.908;2023-07-22T12:23:02;3.60;;;2.20;;
23684;SDS011;12020;51.384;6.908;2023-07-22T12:25:29;6.55;;;3.83;;
23684;SDS011;12020;51.384;6.908;2023-07-22T12:30:25;4.32;;;2.50;;
23684;SDS011;12020;51.384;6.908;2023-07-22T12:35:41;4.53;;;3.47;;
23684;SDS011;12020;51.384;6.908;2023-07-22T12:38:07;4.20;;;3.10;;
23684;SDS011;12020;51.384;6.908;2023-07-22T12:40:32;3.58;;;2.70;;
23684;SDS011;12020;51.384;6.908;2023-07-22T12:42:58;3.67;;;2.60;;
23684;SDS011;12020;51.384;6.908;2023-07-22T12:45:34;3.97;;;2.80;;
23684;SDS011;12020;51.384;6.908;2023-07-22T12:48:01;4.30;;;3.50;;
23684;SDS011;12020;51.384;6.908;2023-07-22T12:50:26;3.80;;;2.95;;
23684;SDS011;12020;51.384;6.908;2023-07-22T12:53:12;3.33;;;3.03;;
23684;SDS011;12020;51.384;6.908;2023-07-22T12:55:45;4.22;;;3.10;;
23684;SDS011;12020;51.384;6.908;2023-07-22T13:00:58;3.22;;;2.67;;
23684;SDS011;12020;51.384;6.908;2023-07-22T13:03:24;3.00;;;2.70;;
23684;SDS011;12020;51.384;6.908;2023-07-22T13:05:54;3.23;;;2.93;;
23684;SDS011;12020;51.384;6.908;2023-07-22T13:08:21;3.28;;;2.83;;
23684;SDS011;12020;51.384;6.908;2023-07-22T13:10:52;4.65;;;3.78;;
23684;SDS011;12020;51.384;6.908;2023-07-22T13:13:19;7.68;;;4.40;;
23684;SDS011;12020;51.384;6.908;2023-07-22T13:15:52;3.20;;;2.63;;
23684;SDS011;12020;51.384;6.908;2023-07-22T13:18:20;7.10;;;3.95;;
23684;SDS011;12020;51.384;6.908;2023-07-22T13:20:48;3.63;;;2.65;;
23684;SDS011;12020;51.384;6.908;2023-07-22T13:23:25;6.77;;;4.10;;
23684;SDS011;12020;51.384;6.908;2023-07-22T13:25:58;3.63;;;2.70;;
23684;SDS011;12020;51.384;6.908;2023-07-22T13:28:25;4.70;;;3.22;;
23684;SDS011;12020;51.384;6.908;2023-07-22T13:30:56;3.00;;;2.47;;
23684;SDS011;12020;51.384;6.908;2023-07-22T13:33:30;3.28;;;2.60;;
23684;SDS011;12020;51.384;6.908;2023-07-22T13:36:03;2.97;;;2.28;;
23684;SDS011;12020;51.384;6.908;2023-07-22T13:38:31;3.20;;;2.30;;
23684;SDS011;12020;51.384;6.908;2023-07-22T13:41:13;4.63;;;2.50;;
23684;SDS011;12020;51.384;6.908;2023-07-22T13:43:42;3.40;;;2.38;;
23684;SDS011;12020;51.384;6.908;2023-07-22T13:46:15;4.07;;;2.50;;
23684;SDS011;12020;51.384;6.908;2023-07-22T13:48:42;2.40;;;2.20;;
23684;SDS011;12020;51.384;6.908;2023-07-22T13:51:09;3.13;;;2.47;;
23684;SDS011;12020;51.384;6.908;2023-07-22T13:53:48;2.70;;;2.28;;
23684;SDS011;12020;51.384;6.908;2023-07-22T13:56:27;2.60;;;2.30;;
23684;SDS011;12020;51.384;6.908;2023-07-22T14:01:30;3.90;;;2.88;;
23684;SDS011;12020;51.384;6.908;2023-07-22T14:03:57;3.08;;;2.78;;
23684;SDS011;12020;51.384;6.908;2023-07-22T14:06:33;2.80;;;2.50;;
23684;SDS011;12020;51.384;6.908;2023-07-22T14:09:01;2.97;;;2.63;;
23684;SDS011;12020;51.384;6.908;2023-07-22T14:11:30;3.55;;;2.60;;
23684;SDS011;12020;51.384;6.908;2023-07-22T14:13:57;3.40;;;2.78;;
23684;SDS011;12020;51.384;6.908;2023-07-22T14:16:33;3.55;;;2.70;;
23684;SDS011;12020;51.384;6.908;2023-07-22T14:18:59;3.80;;;3.13;;
23684;SDS011;12020;51.384;6.908;2023-07-22T14:23:58;2.83;;;2.60;;
23684;SDS011;12020;51.384;6.908;2023-07-22T14:29:12;3.80;;;3.40;;
23684;SDS011;12020;51.384;6.908;2023-07-22T14:31:38;3.13;;;2.70;;
23684;SDS011;12020;51.384;6.908;2023-07-22T14:34:04;5.80;;;3.63;;
23684;SDS011;12020;51.384;6.908;2023-07-22T14:39:21;3.83;;;3.03;;
23684;SDS011;12020;51.384;6.908;2023-07-22T14:41:50;3.28;;;2.97;;
23684;SDS011;12020;51.384;6.908;2023-07-22T14:44:21;3.40;;;2.92;;
23684;SDS011;12020;51.384;6.908;2023-07-22T14:46:47;4.28;;;3.00;;
23684;SDS011;12020;51.384;6.908;2023-07-22T14:49:13;3.83;;;2.87;;
23684;SDS011;12020;51.384;6.908;2023-07-22T14:51:49;3.63;;;2.90;;
23684;SDS011;12020;51.384;6.908;2023-07-22T14:54:37;5.30;;;3.13;;
23684;SDS011;12020;51.384;6.908;2023-07-22T15:00:11;4.30;;;3.05;;
23684;SDS011;12020;51.384;6.908;2023-07-22T15:02:39;3.30;;;3.00;;
23684;SDS011;12020;51.384;6.908;2023-07-22T15:05:12;4.45;;;2.92;;
23684;SDS011;12020;51.384;6.908;2023-07-22T15:07:50;3.10;;;2.80;;
23684;SDS011;12020;51.384;6.908;2023-07-22T15:10:27;4.63;;;2.80;;
23684;SDS011;12020;51.384;6.908;2023-07-22T15:12:57;5.17;;;2.83;;
23684;SDS011;12020;51.384;6.908;2023-07-22T15:15:29;3.10;;;2.80;;
23684;SDS011;12020;51.384;6.908;2023-07-22T15:17:58;4.28;;;2.80;;
23684;SDS011;12020;51.384;6.908;2023-07-22T15:20:25;3.28;;;2.70;;
23684;SDS011;12020;51.384;6.908;2023-07-22T15:22:50;3.13;;;2.70;;
23684;SDS011;12020;51.384;6.908;2023-07-22T15:30:37;3.40;;;2.70;;
23684;SDS011;12020;51.384;6.908;2023-07-22T15:33:05;3.67;;;2.67;;
23684;SDS011;12020;51.384;6.908;2023-07-22T15:35:42;2.80;;;2.60;;
23684;SDS011;12020;51.384;6.908;2023-07-22T15:38:11;3.33;;;2.65;;